Time;durP1;ratioP1;P1;durP2;ratioP2;P2;SDS_P1;SDS_P2;PMS_P1;PMS_P2;Temp;Humidity;BMP_temperature;BMP_pressure;BME280_temperature;BME280_humidity;BME280_pressure;Samples;Min_cycle;Max_cycle;Signal;HPM_P1;HPM_P2
2021/05/16 00:00:54;;;;;;;3.00;1.00;;;10.40;99.90;;;;;;5093016;28;20581;-67
2021/05/16 00:03:21;;;;;;;3.47;1.30;;;10.40;99.90;;;;;;5093085;28;20529;-68
2021/05/16 00:05:48;;;;;;;3.03;1.00;;;10.40;99.90;;;;;;5092676;28;20525;-65
2021/05/16 00:08:15;;;;;;;2.90;1.10;;;10.50;99.90;;;;;;5093042;28;20527;-68
2021/05/16 00:10:42;;;;;;;5.77;2.50;;;10.50;99.90;;;;;;5092758;28;20543;-67
2021/05/16 00:13:10;;;;;;;2.93;1.23;;;10.50;99.90;;;;;;5092759;28;20557;-67
2021/05/16 00:15:37;;;;;;;3.10;1.40;;;10.60;99.90;;;;;;5092489;28;20450;-67
2021/05/16 00:18:04;;;;;;;3.73;1.13;;;10.60;99.90;;;;;;5092747;28;20901;-67
2021/05/16 00:20:33;;;;;;;3.30;1.10;;;10.60;99.90;;;;;;5092759;28;20509;-67
2021/05/16 00:23:00;;;;;;;2.90;1.00;;;10.70;99.90;;;;;;5092616;28;21128;-67
2021/05/16 00:25:27;;;;;;;3.97;0.90;;;10.70;99.90;;;;;;5092516;28;20792;-67
2021/05/16 00:27:54;;;;;;;4.10;1.20;;;10.70;99.90;;;;;;5092020;28;20518;-67
2021/05/16 00:30:25;;;;;;;3.40;1.00;;;10.80;99.90;;;;;;5092720;28;20591;-67
2021/05/16 00:32:51;;;;;;;3.17;1.47;;;10.70;99.90;;;;;;5092594;28;20448;-69
2021/05/16 00:35:22;;;;;;;2.40;1.50;;;10.80;99.90;;;;;;5092131;28;20488;-66
2021/05/16 00:37:49;;;;;;;3.80;1.10;;;10.80;99.90;;;;;;5092187;28;20869;-67
2021/05/16 00:40:16;;;;;;;1.80;1.00;;;10.80;99.90;;;;;;5093049;28;20569;-70
2021/05/16 00:42:43;;;;;;;2.90;1.50;;;10.70;99.90;;;;;;5092814;28;20826;-67
2021/05/16 00:45:11;;;;;;;3.03;0.90;;;10.80;99.90;;;;;;5092124;28;20869;-66
2021/05/16 00:47:39;;;;;;;3.83;1.10;;;10.80;99.90;;;;;;5092280;28;20522;-70
2021/05/16 00:50:08;;;;;;;3.23;1.40;;;10.80;99.90;;;;;;5092613;28;20545;-67
2021/05/16 00:52:39;;;;;;;3.17;1.00;;;10.80;99.90;;;;;;5092024;28;20443;-67
2021/05/16 00:55:07;;;;;;;3.20;1.10;;;10.80;99.90;;;;;;5091979;28;20525;-67
2021/05/16 00:57:33;;;;;;;3.40;1.10;;;10.80;99.90;;;;;;5094267;28;20525;-68
2021/05/16 01:00:00;;;;;;;3.20;1.33;;;10.80;99.90;;;;;;5094113;28;20525;-68
2021/05/16 01:02:26;;;;;;;2.30;0.93;;;10.60;99.90;;;;;;5092977;28;20470;-69
2021/05/16 01:04:52;;;;;;;2.63;1.13;;;10.60;99.90;;;;;;5091220;28;20450;-68
2021/05/16 01:07:19;;;;;;;5.50;1.50;;;10.40;99.90;;;;;;5091954;28;20446;-68
2021/05/16 01:09:46;;;;;;;2.87;1.00;;;10.30;99.90;;;;;;5091400;28;20525;-68
2021/05/16 01:12:13;;;;;;;3.03;1.10;;;10.30;99.90;;;;;;5091563;28;20540;-68
2021/05/16 01:14:43;;;;;;;3.57;1.60;;;10.20;99.90;;;;;;5091524;28;20548;-68
2021/05/16 01:17:10;;;;;;;3.97;1.60;;;10.30;99.90;;;;;;5091187;28;20507;-69
2021/05/16 01:19:38;;;;;;;3.33;1.20;;;10.20;99.90;;;;;;5091248;28;20478;-69
2021/05/16 01:22:07;;;;;;;2.80;1.23;;;10.30;99.90;;;;;;5091735;28;20518;-68
2021/05/16 01:24:34;;;;;;;2.90;1.27;;;10.30;99.90;;;;;;5091312;28;20537;-68
2021/05/16 01:27:00;;;;;;;2.53;1.23;;;10.30;99.90;;;;;;5091402;28;20481;-68
2021/05/16 01:29:28;;;;;;;3.90;1.57;;;10.30;99.90;;;;;;5091277;28;20496;-68
2021/05/16 01:31:55;;;;;;;3.07;1.37;;;10.30;99.90;;;;;;5091176;28;20545;-68
2021/05/16 01:34:22;;;;;;;5.10;1.77;;;10.40;99.90;;;;;;5090987;28;20481;-68
2021/05/16 01:36:49;;;;;;;2.10;1.10;;;10.30;99.90;;;;;;5091372;28;20474;-68
2021/05/16 01:39:16;;;;;;;4.27;1.20;;;10.30;99.90;;;;;;5091239;28;20448;-66
2021/05/16 01:41:42;;;;;;;4.47;1.37;;;10.30;99.90;;;;;;5091059;28;20569;-66
2021/05/16 01:44:12;;;;;;;3.77;1.30;;;10.40;99.90;;;;;;5090741;28;20454;-68
2021/05/16 01:46:38;;;;;;;1.87;1.07;;;10.30;99.90;;;;;;5090844;28;20564;-69
2021/05/16 01:49:05;;;;;;;3.63;1.30;;;10.40;99.90;;;;;;5090988;28;20454;-69
2021/05/16 01:51:32;;;;;;;3.10;1.33;;;10.30;99.90;;;;;;5090994;28;20549;-69
2021/05/16 01:53:58;;;;;;;3.40;1.30;;;10.30;99.90;;;;;;5090718;28;20533;-68
2021/05/16 01:56:27;;;;;;;3.30;1.37;;;10.40;99.90;;;;;;5090867;28;20446;-69
2021/05/16 01:58:55;;;;;;;4.13;1.23;;;10.40;99.90;;;;;;5090916;28;20449;-69
2021/05/16 02:01:22;;;;;;;3.30;1.37;;;10.40;99.90;;;;;;5090650;28;21368;-69
2021/05/16 02:03:49;;;;;;;2.47;1.00;;;10.50;99.90;;;;;;5090687;28;20448;-66
2021/05/16 02:06:16;;;;;;;3.60;1.33;;;10.60;99.90;;;;;;5090693;28;20940;-69
2021/05/16 02:08:44;;;;;;;8.23;1.40;;;10.60;99.90;;;;;;5090886;28;20613;-66
2021/05/16 02:11:11;;;;;;;7.43;2.70;;;10.60;99.90;;;;;;5091049;28;20462;-70
2021/05/16 02:13:40;;;;;;;4.40;1.30;;;10.60;99.90;;;;;;5090716;28;21027;-69
2021/05/16 02:16:07;;;;;;;4.33;1.57;;;10.60;99.90;;;;;;5090456;28;21046;-70
2021/05/16 02:18:33;;;;;;;4.23;1.63;;;10.60;99.90;;;;;;5090797;28;20549;-70
2021/05/16 02:21:00;;;;;;;5.57;1.33;;;10.60;99.90;;;;;;5090606;28;20963;-70
2021/05/16 02:23:27;;;;;;;4.40;1.80;;;10.60;99.90;;;;;;5090708;28;20446;-67
2021/05/16 02:25:53;;;;;;;4.93;1.50;;;10.70;99.90;;;;;;5090206;28;20478;-69
2021/05/16 02:28:21;;;;;;;2.67;1.27;;;10.70;99.90;;;;;;5090689;28;20493;-70
2021/05/16 02:30:49;;;;;;;3.50;2.20;;;10.60;99.90;;;;;;5090551;28;20458;-70
2021/05/16 02:33:15;;;;;;;4.73;1.33;;;10.60;99.90;;;;;;5090433;28;20474;-66
2021/05/16 02:35:42;;;;;;;3.80;1.77;;;10.60;99.90;;;;;;5090130;28;20438;-69
2021/05/16 02:38:08;;;;;;;2.67;1.70;;;10.50;99.90;;;;;;5090252;28;20533;-69
2021/05/16 02:40:35;;;;;;;3.23;1.50;;;10.50;99.90;;;;;;5090062;28;21011;-69
2021/05/16 02:43:01;;;;;;;3.80;1.80;;;10.40;99.90;;;;;;5090525;28;20525;-70
2021/05/16 02:45:27;;;;;;;3.50;1.80;;;10.30;99.90;;;;;;5090136;28;20830;-66
2021/05/16 02:47:55;;;;;;;2.77;1.40;;;10.20;99.90;;;;;;5090642;28;20533;-69
2021/05/16 02:50:21;;;;;;;4.87;1.47;;;10.20;99.90;;;;;;5090412;28;20454;-69
2021/05/16 02:52:47;;;;;;;3.77;1.53;;;10.10;99.90;;;;;;5090327;28;20499;-69
2021/05/16 02:55:14;;;;;;;3.53;1.50;;;10.10;99.90;;;;;;5089773;28;20549;-68
2021/05/16 02:57:41;;;;;;;4.40;1.70;;;10.10;99.90;;;;;;5090229;28;20533;-69
2021/05/16 03:00:08;;;;;;;2.97;1.80;;;10.00;99.90;;;;;;5090335;28;20486;-69
2021/05/16 03:02:34;;;;;;;3.20;1.60;;;10.00;99.90;;;;;;5090241;28;20948;-69
2021/05/16 03:05:01;;;;;;;3.50;1.70;;;9.90;99.90;;;;;;5089986;28;20541;-69
2021/05/16 03:07:28;;;;;;;4.57;2.10;;;10.00;99.90;;;;;;5090197;28;20667;-70
2021/05/16 03:09:55;;;;;;;3.37;1.90;;;10.00;99.90;;;;;;5090139;28;20573;-67
2021/05/16 03:12:22;;;;;;;3.70;1.80;;;9.90;99.90;;;;;;5089935;28;20438;-70
2021/05/16 03:14:48;;;;;;;4.03;2.17;;;9.90;99.90;;;;;;5089847;28;20470;-70
2021/05/16 03:17:14;;;;;;;6.87;2.00;;;9.90;99.90;;;;;;5092777;28;20591;-67
2021/05/16 03:19:41;;;;;;;4.33;2.00;;;9.90;99.90;;;;;;5093696;28;20513;-69
2021/05/16 03:22:09;;;;;;;7.10;2.43;;;9.90;99.90;;;;;;5093867;28;20520;-69
2021/05/16 03:24:37;;;;;;;5.90;1.93;;;9.90;99.90;;;;;;5093578;28;20450;-69
2021/05/16 03:27:04;;;;;;;4.40;2.20;;;10.00;99.90;;;;;;5093589;28;20446;-70
2021/05/16 03:29:31;;;;;;;3.77;1.60;;;10.00;99.90;;;;;;5093751;28;20446;-69
2021/05/16 03:31:58;;;;;;;6.10;1.97;;;10.00;99.90;;;;;;5093739;28;20478;-69
2021/05/16 03:34:24;;;;;;;6.63;2.00;;;9.90;99.90;;;;;;5093213;28;20977;-70
2021/05/16 03:36:51;;;;;;;3.20;1.80;;;9.90;99.90;;;;;;5093307;28;20446;-69
2021/05/16 03:39:19;;;;;;;3.40;2.40;;;9.90;99.90;;;;;;5093333;28;20443;-68
2021/05/16 03:41:47;;;;;;;3.67;1.90;;;10.00;99.90;;;;;;5093416;28;20478;-69
2021/05/16 03:44:14;;;;;;;3.70;1.93;;;10.00;99.90;;;;;;5092966;28;20446;-69
2021/05/16 03:46:40;;;;;;;2.60;1.57;;;10.00;99.90;;;;;;5093374;28;20888;-69
2021/05/16 03:49:06;;;;;;;2.20;1.80;;;10.00;99.90;;;;;;5093527;28;20503;-70
2021/05/16 03:51:33;;;;;;;3.07;1.70;;;10.00;99.90;;;;;;5092963;28;20476;-70
2021/05/16 03:53:59;;;;;;;3.60;1.90;;;10.00;99.90;;;;;;5092869;28;20511;-69
2021/05/16 03:56:26;;;;;;;4.13;2.10;;;10.00;99.90;;;;;;5093304;28;20500;-68
2021/05/16 03:58:53;;;;;;;3.33;1.80;;;10.00;99.90;;;;;;5093258;28;20583;-70
2021/05/16 04:01:20;;;;;;;4.43;2.10;;;10.00;99.90;;;;;;5092793;28;20572;-69
2021/05/16 04:03:46;;;;;;;4.23;1.73;;;10.00;99.90;;;;;;5092946;28;20851;-68
2021/05/16 04:06:13;;;;;;;2.90;1.70;;;10.00;99.90;;;;;;5092639;28;20446;-69
2021/05/16 04:08:39;;;;;;;2.63;1.83;;;10.00;99.90;;;;;;5092665;28;21013;-70
2021/05/16 04:11:06;;;;;;;4.40;2.13;;;10.00;99.90;;;;;;5092926;28;20545;-69
2021/05/16 04:13:33;;;;;;;4.07;2.03;;;10.00;99.90;;;;;;5092685;28;20533;-68
2021/05/16 04:16:01;;;;;;;3.00;1.67;;;9.90;99.90;;;;;;5092736;28;20536;-70
2021/05/16 04:18:27;;;;;;;6.10;2.27;;;10.00;99.90;;;;;;5092481;28;20454;-69
2021/05/16 04:20:53;;;;;;;3.07;2.10;;;9.90;99.90;;;;;;5092762;28;21015;-69
2021/05/16 04:23:20;;;;;;;3.20;2.20;;;9.90;99.90;;;;;;5092671;28;20903;-70
2021/05/16 04:25:46;;;;;;;5.53;2.27;;;9.80;99.90;;;;;;5092422;28;20517;-69
2021/05/16 04:28:13;;;;;;;3.23;1.80;;;9.90;99.90;;;;;;5091887;28;20487;-68
2021/05/16 04:30:40;;;;;;;5.47;1.60;;;9.80;99.90;;;;;;5092272;28;20879;-69
2021/05/16 04:33:07;;;;;;;3.80;2.10;;;9.80;99.90;;;;;;5092253;28;20472;-70
2021/05/16 04:35:33;;;;;;;4.10;2.60;;;9.80;99.90;;;;;;5092023;28;20536;-69
2021/05/16 04:37:59;;;;;;;3.10;1.93;;;9.80;99.90;;;;;;5092260;28;20449;-70
2021/05/16 04:40:26;;;;;;;2.60;1.90;;;9.80;99.90;;;;;;5092037;28;20852;-69
2021/05/16 04:42:52;;;;;;;2.60;2.13;;;9.80;99.90;;;;;;5092138;28;20537;-70
2021/05/16 04:45:19;;;;;;;4.07;2.40;;;9.80;99.90;;;;;;5091489;28;21031;-67
2021/05/16 04:47:46;;;;;;;2.70;1.70;;;9.90;99.90;;;;;;5091888;28;20530;-70
2021/05/16 04:50:15;;;;;;;3.97;1.80;;;9.90;99.90;;;;;;5092118;28;20545;-71
2021/05/16 04:52:41;;;;;;;3.10;2.10;;;10.00;99.90;;;;;;5092139;28;20457;-68
2021/05/16 04:55:09;;;;;;;2.40;1.60;;;10.00;99.90;;;;;;5091902;28;20448;-69
2021/05/16 04:57:35;;;;;;;3.03;2.00;;;10.00;99.90;;;;;;5092007;28;20446;-70
2021/05/16 05:00:02;;;;;;;3.13;1.90;;;10.10;99.90;;;;;;5091604;28;21012;-70
2021/05/16 05:02:29;;;;;;;5.70;1.80;;;10.10;99.90;;;;;;5091903;28;20450;-70
2021/05/16 05:04:57;;;;;;;3.83;1.70;;;10.10;99.90;;;;;;5091679;28;20450;-69
2021/05/16 05:07:24;;;;;;;6.33;1.90;;;10.10;99.90;;;;;;5091729;28;20445;-69
2021/05/16 05:09:50;;;;;;;4.40;2.17;;;10.00;99.90;;;;;;5092022;28;20478;-69
2021/05/16 05:12:16;;;;;;;3.93;1.90;;;9.90;99.90;;;;;;5091750;28;20450;-68
2021/05/16 05:14:43;;;;;;;5.63;2.37;;;10.00;99.90;;;;;;5091464;28;20528;-68
2021/05/16 05:17:09;;;;;;;2.67;1.73;;;10.00;99.90;;;;;;5091476;28;20458;-68
2021/05/16 05:19:36;;;;;;;2.77;1.70;;;10.00;99.90;;;;;;5092164;28;20886;-69
2021/05/16 05:22:03;;;;;;;2.63;1.67;;;10.10;99.90;;;;;;5092348;28;20831;-69
2021/05/16 05:24:30;;;;;;;2.87;1.80;;;10.20;99.90;;;;;;5091474;28;21006;-69
2021/05/16 05:26:56;;;;;;;4.20;1.53;;;10.20;99.90;;;;;;5091643;28;20504;-69
2021/05/16 05:29:23;;;;;;;2.80;1.57;;;10.40;99.90;;;;;;5091403;28;20457;-67
2021/05/16 05:31:49;;;;;;;5.03;2.13;;;10.50;99.90;;;;;;5091152;28;20462;-66
2021/05/16 05:34:16;;;;;;;3.23;1.70;;;10.80;99.90;;;;;;5090902;28;20456;-66
2021/05/16 05:36:43;;;;;;;3.60;1.50;;;10.90;99.90;;;;;;5091110;28;20484;-67
2021/05/16 05:39:11;;;;;;;2.27;1.47;;;11.20;99.90;;;;;;5090223;28;20503;-68
2021/05/16 05:41:38;;;;;;;2.33;1.80;;;11.30;99.90;;;;;;5090643;28;20482;-69
2021/05/16 05:44:05;;;;;;;2.37;1.17;;;11.40;99.90;;;;;;5090560;28;20596;-68
2021/05/16 05:46:32;;;;;;;3.07;1.20;;;11.40;99.90;;;;;;5090717;28;20932;-68
2021/05/16 05:48:58;;;;;;;2.80;1.20;;;11.50;99.90;;;;;;5091211;28;20456;-65
2021/05/16 05:51:24;;;;;;;3.23;1.30;;;11.40;99.90;;;;;;5090880;28;20525;-66
2021/05/16 05:53:51;;;;;;;5.40;2.60;;;11.30;99.90;;;;;;5091246;28;20446;-67
2021/05/16 05:56:18;;;;;;;3.97;1.47;;;11.10;99.90;;;;;;5090773;28;20499;-68
2021/05/16 05:58:45;;;;;;;3.33;1.20;;;10.90;99.90;;;;;;5091129;28;20549;-68
2021/05/16 06:01:11;;;;;;;4.37;1.10;;;10.70;99.90;;;;;;5090713;28;20493;-69
2021/05/16 06:03:38;;;;;;;2.93;1.40;;;10.60;99.90;;;;;;5090775;28;20442;-67
2021/05/16 06:06:05;;;;;;;3.70;1.43;;;10.50;99.90;;;;;;5090553;28;20952;-69
2021/05/16 06:08:31;;;;;;;3.27;1.23;;;10.50;99.90;;;;;;5090575;28;20449;-69
2021/05/16 06:10:58;;;;;;;2.40;1.73;;;10.50;99.90;;;;;;5090729;28;20465;-68
2021/05/16 06:13:25;;;;;;;2.80;1.30;;;10.50;99.90;;;;;;5090944;28;20454;-68
2021/05/16 06:15:52;;;;;;;3.00;1.43;;;10.60;99.90;;;;;;5090292;28;20472;-65
2021/05/16 06:18:18;;;;;;;4.70;1.60;;;10.70;99.90;;;;;;5090887;28;20910;-67
2021/05/16 06:20:45;;;;;;;3.03;1.70;;;10.80;99.90;;;;;;5090384;28;20576;-67
2021/05/16 06:23:13;;;;;;;2.80;1.47;;;11.00;99.90;;;;;;5090376;28;20525;-70
2021/05/16 06:25:40;;;;;;;3.73;1.63;;;11.20;99.90;;;;;;5090009;28;20590;-68
2021/05/16 06:28:06;;;;;;;6.77;1.30;;;11.30;99.90;;;;;;5090087;28;20461;-68
2021/05/16 06:30:34;;;;;;;3.13;1.67;;;11.40;99.90;;;;;;5090469;28;20474;-68
2021/05/16 06:33:00;;;;;;;2.23;1.50;;;11.30;99.90;;;;;;5090443;28;20519;-68
2021/05/16 06:35:27;;;;;;;2.63;1.30;;;11.20;99.90;;;;;;5090206;28;20450;-68
2021/05/16 06:37:53;;;;;;;3.07;1.23;;;11.20;99.90;;;;;;5090194;28;20545;-69
2021/05/16 06:40:20;;;;;;;2.53;1.10;;;11.20;99.90;;;;;;5090011;28;20490;-69
2021/05/16 06:42:47;;;;;;;3.80;1.80;;;11.20;99.90;;;;;;5090459;28;20454;-68
2021/05/16 06:45:14;;;;;;;2.37;1.10;;;11.30;99.90;;;;;;5090165;28;20450;-68
2021/05/16 06:47:41;;;;;;;3.23;1.70;;;11.40;99.90;;;;;;5090431;28;20798;-68
2021/05/16 06:50:10;;;;;;;2.20;1.13;;;11.60;99.90;;;;;;5091461;28;20463;-70
2021/05/16 06:52:37;;;;;;;2.63;1.43;;;11.80;99.90;;;;;;5094903;28;20438;-67
2021/05/16 06:55:04;;;;;;;3.03;1.10;;;12.10;99.90;;;;;;5094040;28;21137;-68
2021/05/16 06:57:31;;;;;;;2.60;0.87;;;12.40;99.90;;;;;;5094590;28;20457;-69
2021/05/16 06:59:58;;;;;;;3.50;1.37;;;12.50;99.90;;;;;;5094322;28;20917;-67
2021/05/16 07:02:24;;;;;;;2.50;1.00;;;12.70;99.90;;;;;;5094255;28;20453;-69
2021/05/16 07:04:52;;;;;;;4.17;1.10;;;12.80;99.90;;;;;;5093781;28;20797;-68
2021/05/16 07:07:18;;;;;;;2.03;1.10;;;13.00;99.90;;;;;;5094253;28;20453;-69
2021/05/16 07:09:45;;;;;;;4.70;1.10;;;13.20;99.90;;;;;;5094159;28;20553;-69
2021/05/16 07:12:11;;;;;;;4.23;1.20;;;13.40;99.90;;;;;;5094192;28;20442;-68
2021/05/16 07:14:38;;;;;;;2.77;1.13;;;13.50;99.90;;;;;;5093755;28;20446;-68
2021/05/16 07:17:04;;;;;;;2.20;1.07;;;13.70;99.90;;;;;;5093806;28;20454;-68
2021/05/16 07:19:31;;;;;;;2.33;1.20;;;13.80;99.90;;;;;;5093767;28;20786;-68
2021/05/16 07:21:58;;;;;;;2.20;1.03;;;13.90;99.90;;;;;;5093541;28;20535;-69
2021/05/16 07:24:25;;;;;;;4.13;1.20;;;14.00;99.90;;;;;;5093169;28;20953;-68
2021/05/16 07:26:51;;;;;;;4.27;1.30;;;14.00;99.90;;;;;;5093768;28;20449;-70
2021/05/16 07:29:18;;;;;;;3.43;1.20;;;14.00;99.90;;;;;;5091184;28;20442;-68
2021/05/16 07:31:44;;;;;;;3.40;1.00;;;14.00;99.90;;;;;;5093134;28;20470;-68
2021/05/16 07:34:11;;;;;;;2.83;1.10;;;14.10;99.90;;;;;;5092753;28;20916;-68
2021/05/16 07:36:38;;;;;;;5.07;1.50;;;14.20;99.90;;;;;;5092791;28;20579;-68
2021/05/16 07:39:05;;;;;;;2.77;0.93;;;14.30;99.90;;;;;;5093369;28;20446;-69
2021/05/16 07:41:32;;;;;;;2.57;1.20;;;14.40;99.90;;;;;;5093192;28;20481;-68
2021/05/16 07:43:58;;;;;;;4.23;1.30;;;14.20;99.90;;;;;;5092504;28;20474;-68
2021/05/16 07:46:25;;;;;;;4.00;1.60;;;14.00;99.90;;;;;;5092749;28;20528;-67
2021/05/16 07:48:51;;;;;;;6.60;1.20;;;14.00;99.90;;;;;;5092987;28;20445;-67
2021/05/16 07:51:17;;;;;;;3.53;1.30;;;14.00;99.90;;;;;;5093137;28;20504;-67
2021/05/16 07:53:45;;;;;;;2.90;0.97;;;14.20;99.90;;;;;;5092860;28;20611;-66
2021/05/16 07:56:12;;;;;;;2.93;1.00;;;14.40;99.90;;;;;;5091676;28;20537;-67
2021/05/16 07:58:38;;;;;;;2.63;1.10;;;14.50;99.90;;;;;;5092916;28;20438;-68
2021/05/16 08:01:05;;;;;;;1.80;1.13;;;14.60;99.90;;;;;;5092379;28;20481;-69
2021/05/16 08:03:31;;;;;;;2.43;1.00;;;14.70;99.90;;;;;;5091437;28;21043;-68
2021/05/16 08:05:58;;;;;;;1.97;0.90;;;14.60;99.90;;;;;;5091682;28;20640;-69
2021/05/16 08:08:24;;;;;;;4.33;1.23;;;14.70;99.90;;;;;;5092624;28;20527;-68
2021/05/16 08:10:51;;;;;;;3.27;1.10;;;14.90;99.90;;;;;;5093102;28;20553;-68
2021/05/16 08:13:18;;;;;;;2.90;1.20;;;15.10;99.90;;;;;;5092936;28;20488;-67
2021/05/16 08:15:45;;;;;;;2.67;1.00;;;15.20;99.90;;;;;;5092821;28;20484;-68
2021/05/16 08:18:11;;;;;;;4.17;1.67;;;15.40;99.90;;;;;;5093301;28;20881;-69
2021/05/16 08:20:38;;;;;;;2.83;0.80;;;15.20;99.90;;;;;;5093337;28;20507;-67
2021/05/16 08:23:05;;;;;;;6.20;1.40;;;15.20;99.90;;;;;;5089027;28;20490;-68
2021/05/16 08:25:32;;;;;;;1.90;0.90;;;15.20;99.90;;;;;;5092654;28;20478;-68
2021/05/16 08:28:00;;;;;;;2.80;1.00;;;15.00;99.90;;;;;;5092633;28;20495;-71
2021/05/16 08:30:28;;;;;;;5.17;1.13;;;14.80;99.90;;;;;;5092346;28;20486;-68
2021/05/16 08:32:55;;;;;;;2.43;1.00;;;14.90;99.90;;;;;;5092506;28;20449;-67
2021/05/16 08:35:21;;;;;;;2.00;1.03;;;14.70;99.90;;;;;;5092394;28;20482;-68
2021/05/16 08:37:48;;;;;;;2.80;1.00;;;14.70;99.90;;;;;;5092531;28;20446;-67
2021/05/16 08:40:15;;;;;;;2.30;0.90;;;14.80;99.90;;;;;;5092555;28;20851;-67
2021/05/16 08:42:42;;;;;;;2.10;1.00;;;14.80;99.90;;;;;;5092721;28;20446;-69
2021/05/16 08:45:10;;;;;;;2.53;0.80;;;14.70;99.90;;;;;;5092177;28;20533;-67
2021/05/16 08:47:38;;;;;;;2.83;1.10;;;14.70;99.90;;;;;;5092476;28;20843;-67
2021/05/16 08:50:07;;;;;;;4.23;1.00;;;14.90;99.90;;;;;;5091821;28;20471;-68
2021/05/16 08:52:33;;;;;;;4.00;1.20;;;14.90;99.90;;;;;;5092028;28;20446;-68
2021/05/16 08:54:59;;;;;;;5.97;1.23;;;14.80;99.90;;;;;;5091911;28;20478;-68
2021/05/16 08:57:26;;;;;;;2.30;0.90;;;14.80;99.90;;;;;;5091857;28;20446;-69
2021/05/16 09:00:20;;;;;;;3.10;1.00;;;15.00;99.90;;;;;;5091546;28;20553;-68
2021/05/16 09:03:09;;;;;;;3.13;1.20;;;15.50;99.90;;;;;;5066010;28;20447;-68
2021/05/16 09:05:38;;;;;;;5.07;1.67;;;16.10;99.90;;;;;;5083054;28;21024;-69
2021/05/16 09:08:11;;;;;;;3.10;1.10;;;16.60;99.90;;;;;;5091073;28;20717;-70
2021/05/16 09:10:39;;;;;;;3.00;1.00;;;17.20;99.90;;;;;;5082667;22;21152;-73
2021/05/16 09:13:24;;;;;;;4.17;0.93;;;17.20;99.90;;;;;;5063798;28;20591;-69
2021/05/16 09:16:06;;;;;;;2.50;1.50;;;16.70;99.90;;;;;;5053831;28;20509;-68
2021/05/16 09:18:38;;;;;;;8.70;2.30;;;16.70;99.90;;;;;;5047149;28;21177;-69
2021/05/16 09:21:24;;;;;;;1.93;0.97;;;16.50;99.90;;;;;;5065139;28;20512;-69
2021/05/16 09:24:10;;;;;;;3.70;1.30;;;16.30;99.90;;;;;;5070435;28;20443;-68
2021/05/16 09:26:49;;;;;;;4.13;1.57;;;16.30;99.90;;;;;;5070430;28;20439;-69
2021/05/16 09:29:26;;;;;;;3.00;1.57;;;16.20;99.90;;;;;;5069781;28;20538;-69
2021/05/16 09:31:52;;;;;;;3.03;1.20;;;16.00;99.90;;;;;;5070582;28;20917;-69
2021/05/16 09:34:20;;;;;;;4.67;1.10;;;15.90;99.90;;;;;;5070383;28;20614;-69
2021/05/16 09:36:48;;;;;;;5.37;1.50;;;16.00;99.90;;;;;;5070348;28;20894;-69
2021/05/16 09:39:17;;;;;;;3.70;1.10;;;16.70;99.90;;;;;;5070362;28;20546;-69
2021/05/16 09:42:05;;;;;;;6.40;1.50;;;17.30;99.90;;;;;;5070157;28;20602;-69
2021/05/16 09:44:33;;;;;;;2.70;1.20;;;17.10;99.40;;;;;;5069946;28;20451;-69
2021/05/16 09:47:27;;;;;;;4.63;1.20;;;16.80;99.90;;;;;;5076705;28;20447;-69
2021/05/16 09:49:56;;;;;;;4.30;1.20;;;17.00;99.90;;;;;;5034261;28;20475;-71
2021/05/16 09:52:26;;;;;;;3.77;1.40;;;16.90;99.20;;;;;;5070374;28;20446;-69
2021/05/16 09:55:01;;;;;;;3.23;1.30;;;16.60;99.30;;;;;;5070252;28;20478;-69
2021/05/16 09:57:29;;;;;;;5.20;2.90;;;16.40;99.30;;;;;;5070749;28;20438;-70
2021/05/16 09:59:56;;;;;;;3.57;1.73;;;16.30;99.90;;;;;;5070467;28;21019;-71
2021/05/16 10:02:27;;;;;;;4.77;1.43;;;16.90;99.90;;;;;;5070167;28;20564;-72
2021/05/16 10:04:55;;;;;;;5.60;3.00;;;17.90;98.00;;;;;;5056869;28;20460;-69
2021/05/16 10:07:23;;;;;;;4.60;1.37;;;18.20;96.80;;;;;;5057622;28;20815;-71
2021/05/16 10:09:51;;;;;;;5.47;1.53;;;19.10;97.20;;;;;;5055073;28;20468;-69
2021/05/16 10:12:18;;;;;;;4.33;1.37;;;19.90;95.40;;;;;;5048867;28;20448;-71
2021/05/16 10:14:48;;;;;;;5.20;2.13;;;19.90;92.90;;;;;;5048422;28;20456;-71
2021/05/16 10:17:16;;;;;;;3.27;1.50;;;19.00;95.00;;;;;;5051754;28;20922;-69
2021/05/16 10:19:44;;;;;;;3.83;1.67;;;18.80;95.90;;;;;;5054737;28;20970;-69
2021/05/16 10:22:16;;;;;;;8.33;2.37;;;19.50;94.70;;;;;;5049180;28;20487;-68
2021/05/16 10:24:44;;;;;;;3.23;1.20;;;20.30;95.20;;;;;;5052148;28;20453;-70
2021/05/16 10:27:21;;;;;;;6.20;1.80;;;19.50;92.20;;;;;;5055762;28;20466;-69
2021/05/16 10:29:49;;;;;;;3.40;1.40;;;19.90;93.00;;;;;;5055045;28;20470;-69
2021/05/16 10:32:27;;;;;;;4.50;1.40;;;21.10;93.20;;;;;;5048181;28;20523;-70
2021/05/16 10:34:58;;;;;;;2.77;0.97;;;20.90;88.90;;;;;;5053341;28;20455;-71
2021/05/16 10:37:46;;;;;;;2.63;1.03;;;20.20;89.00;;;;;;5057764;28;20502;-69
2021/05/16 10:40:32;;;;;;;3.90;1.37;;;19.30;90.90;;;;;;5048590;28;20962;-70
2021/05/16 10:43:00;;;;;;;2.50;1.10;;;18.50;92.10;;;;;;5049193;28;20925;-70
2021/05/16 10:45:34;;;;;;;3.23;1.10;;;18.20;91.30;;;;;;5048382;28;20444;-70
2021/05/16 10:48:08;;;;;;;4.10;1.10;;;18.00;94.10;;;;;;5048754;28;20468;-69
2021/05/16 10:50:40;;;;;;;2.63;0.97;;;18.40;93.20;;;;;;5048175;28;21042;-70
2021/05/16 10:53:10;;;;;;;3.53;1.47;;;18.90;92.10;;;;;;5048859;28;20502;-68
2021/05/16 10:55:38;;;;;;;4.20;1.50;;;19.80;90.70;;;;;;5048432;28;20448;-69
2021/05/16 10:58:06;;;;;;;3.03;1.27;;;20.10;89.00;;;;;;5048382;28;20448;-69
2021/05/16 11:00:39;;;;;;;4.17;1.40;;;20.30;89.70;;;;;;5048656;28;20491;-70
2021/05/16 11:03:09;;;;;;;3.77;1.00;;;20.40;89.20;;;;;;5055641;28;20929;-69
2021/05/16 11:05:59;;;;;;;2.60;1.53;;;20.60;85.80;;;;;;5051530;28;20961;-71
2021/05/16 11:09:09;;;;;;;3.90;1.53;;;21.20;88.30;;;;;;5049351;28;20436;-70
2021/05/16 11:11:53;;;;;;;4.87;1.50;;;21.80;86.80;;;;;;5049131;28;20436;-69
2021/05/16 11:14:22;;;;;;;8.00;3.43;;;21.40;82.90;;;;;;5048485;28;21220;-70
2021/05/16 11:16:51;;;;;;;5.33;1.30;;;20.70;84.10;;;;;;5049030;28;21018;-71
2021/05/16 11:19:19;;;;;;;3.67;1.23;;;19.90;86.70;;;;;;5048289;28;20547;-69
2021/05/16 11:21:46;;;;;;;3.93;1.40;;;19.30;88.00;;;;;;5048439;28;20484;-68
2021/05/16 11:24:12;;;;;;;3.33;1.50;;;19.40;90.20;;;;;;5048236;28;20448;-69
2021/05/16 11:26:39;;;;;;;2.80;1.23;;;20.50;90.80;;;;;;5048644;28;20474;-68
2021/05/16 11:29:06;;;;;;;3.70;1.20;;;21.80;85.60;;;;;;5048045;28;20467;-68
2021/05/16 11:31:34;;;;;;;3.93;1.13;;;22.80;83.70;;;;;;5054777;28;20515;-73
2021/05/16 11:34:02;;;;;;;3.67;1.50;;;23.00;85.60;;;;;;5062192;28;20527;-69
2021/05/16 11:36:29;;;;;;;2.73;1.10;;;23.40;81.50;;;;;;5061768;28;20436;-69
2021/05/16 11:38:57;;;;;;;3.60;1.40;;;23.30;74.20;;;;;;5071467;28;20483;-69
2021/05/16 11:41:29;;;;;;;3.60;1.03;;;23.70;82.40;;;;;;5058368;28;20479;-69
2021/05/16 11:43:58;;;;;;;5.67;1.90;;;24.30;76.70;;;;;;5031876;28;20455;-69
2021/05/16 11:46:27;;;;;;;2.53;0.90;;;22.90;73.20;;;;;;5032147;28;20864;-69
2021/05/16 11:48:53;;;;;;;4.77;1.40;;;22.00;74.40;;;;;;5032414;28;20456;-69
2021/05/16 11:51:21;;;;;;;2.90;1.00;;;22.30;79.10;;;;;;5032463;28;20871;-69
2021/05/16 11:53:52;;;;;;;2.43;1.13;;;22.90;73.70;;;;;;5032234;28;20460;-69
2021/05/16 11:56:21;;;;;;;5.30;1.57;;;22.80;73.10;;;;;;5032002;28;20451;-69
2021/05/16 11:58:52;;;;;;;5.57;1.47;;;22.70;70.60;;;;;;5031955;28;20528;-69
2021/05/16 12:01:20;;;;;;;4.27;2.70;;;22.90;71.90;;;;;;5031983;28;20513;-69
2021/05/16 12:04:00;;;;;;;3.90;1.53;;;22.00;68.70;;;;;;5031918;28;20456;-68
2021/05/16 12:06:28;;;;;;;5.33;1.47;;;21.40;72.90;;;;;;5032001;28;20487;-68
2021/05/16 12:09:06;;;;;;;3.40;1.37;;;21.70;71.30;;;;;;5038133;28;20538;-68
2021/05/16 12:11:33;;;;;;;2.60;0.93;;;21.80;72.10;;;;;;5057791;28;20952;-69
2021/05/16 12:14:11;;;;;;;3.20;1.30;;;22.60;73.20;;;;;;5051412;28;20548;-69
2021/05/16 12:16:39;;;;;;;3.90;1.40;;;22.70;76.80;;;;;;5049989;28;20444;-68
2021/05/16 12:19:07;;;;;;;3.93;1.33;;;23.30;71.60;;;;;;5060120;28;20921;-68
2021/05/16 12:21:37;;;;;;;3.97;0.90;;;23.20;69.40;;;;;;5069176;28;20570;-69
2021/05/16 12:24:06;;;;;;;3.63;1.13;;;22.90;72.90;;;;;;5072173;28;20538;-69
2021/05/16 12:26:34;;;;;;;3.60;1.37;;;23.10;68.90;;;;;;5072030;28;20447;-68
2021/05/16 12:29:01;;;;;;;2.90;1.13;;;22.20;69.90;;;;;;5072165;28;20534;-68
2021/05/16 12:31:29;;;;;;;7.60;2.20;;;21.10;76.10;;;;;;5059987;28;20533;-68
2021/05/16 12:34:01;;;;;;;2.50;1.10;;;20.30;78.30;;;;;;5062096;28;20451;-68
2021/05/16 12:36:28;;;;;;;3.17;1.30;;;19.70;82.70;;;;;;5071858;28;20447;-68
2021/05/16 12:38:56;;;;;;;3.97;1.37;;;19.40;80.70;;;;;;5071844;28;21056;-68
2021/05/16 12:41:27;;;;;;;7.03;2.13;;;19.00;81.40;;;;;;5065324;28;20470;-68
2021/05/16 12:44:23;;;;;;;4.77;1.33;;;18.90;84.60;;;;;;5068507;28;20439;-69
2021/05/16 12:46:50;;;;;;;6.23;1.60;;;18.60;84.10;;;;;;5071620;28;20453;-68
2021/05/16 12:49:20;;;;;;;3.07;1.73;;;18.40;83.80;;;;;;5071153;28;20873;-68
2021/05/16 12:51:57;;;;;;;5.00;1.40;;;18.30;86.60;;;;;;5071580;28;20521;-68
2021/05/16 12:54:26;;;;;;;2.67;1.30;;;18.10;83.90;;;;;;5071586;28;20545;-68